Time;durP1;ratioP1;P1;durP2;ratioP2;P2;SDS_P1;SDS_P2;PMS_P1;PMS_P2;Temp;Humidity;BMP_temperature;BMP_pressure;BME280_temperature;BME280_humidity;BME280_pressure;Samples;Min_cycle;Max_cycle;Signal;HPM_P1;HPM_P2
2022/09/07 00:01:06;;;;;;;3.13;1.95;;;25.80;58.20;26.30;100675.00;;;;5049089;28;20702;-43
2022/09/07 00:03:32;;;;;;;5.50;1.85;;;26.00;58.20;26.50;100676.00;;;;5048669;28;20289;-44
2022/09/07 00:05:58;;;;;;;3.83;1.80;;;26.00;57.60;26.60;100675.00;;;;5050025;28;20659;-43
2022/09/07 00:08:25;;;;;;;2.92;1.80;;;26.00;57.40;26.70;100695.00;;;;5049773;28;20224;-44
2022/09/07 00:11:04;;;;;;;3.95;1.75;;;26.10;57.80;26.80;100673.00;;;;5049821;28;20198;-43
2022/09/07 00:13:33;;;;;;;2.55;1.58;;;25.90;57.90;26.80;100682.00;;;;5049885;28;20194;-43
2022/09/07 00:16:08;;;;;;;2.67;1.75;;;25.60;59.40;26.80;100681.00;;;;5050269;28;20177;-42
2022/09/07 00:18:34;;;;;;;1.50;1.40;;;25.60;59.80;26.90;100692.00;;;;5049753;28;20231;-42
2022/09/07 00:21:07;;;;;;;2.47;1.70;;;25.70;59.40;26.90;100698.00;;;;5049961;28;20195;-43
2022/09/07 00:23:33;;;;;;;3.42;2.00;;;25.70;59.10;27.00;100700.00;;;;5048050;28;20195;-44
2022/09/07 00:26:16;;;;;;;3.10;1.90;;;25.90;58.20;27.10;100700.00;;;;5049514;28;20257;-43
2022/09/07 00:28:42;;;;;;;2.60;1.80;;;26.10;57.30;27.20;100690.00;;;;5049452;28;20190;-42
2022/09/07 00:31:10;;;;;;;2.58;1.85;;;26.30;56.90;27.20;100682.00;;;;5049642;28;20279;-43
2022/09/07 00:33:36;;;;;;;4.03;1.98;;;26.50;56.50;27.30;100646.00;;;;5049334;28;20170;-42
2022/09/07 00:36:02;;;;;;;2.63;1.98;;;26.60;56.90;27.40;100649.00;;;;5049335;28;20216;-42
2022/09/07 00:38:27;;;;;;;2.97;1.80;;;26.60;56.90;27.50;100634.00;;;;5049103;28;20273;-43
2022/09/07 00:40:53;;;;;;;3.25;1.73;;;26.60;55.30;27.60;100626.00;;;;5049184;28;20194;-44
2022/09/07 00:44:27;;;;;;;2.40;1.70;;;26.80;55.40;27.70;100604.00;;;;5049288;28;20170;-44
2022/09/07 00:46:53;;;;;;;2.45;1.95;;;26.90;55.50;27.70;100595.00;;;;5033133;28;20206;-43
2022/09/07 00:49:19;;;;;;;3.58;2.10;;;26.90;56.20;27.70;100596.00;;;;5049410;28;20240;-44
2022/09/07 00:51:56;;;;;;;2.38;2.00;;;26.90;56.20;27.70;100577.00;;;;5047961;28;20194;-43
2022/09/07 00:54:43;;;;;;;3.25;1.85;;;26.90;56.40;27.80;100565.00;;;;5048969;28;20175;-43
2022/09/07 00:57:09;;;;;;;2.67;1.85;;;26.90;56.60;27.80;100549.00;;;;5049072;28;20830;-44
2022/09/07 00:59:38;;;;;;;2.63;1.80;;;26.90;56.50;27.80;100560.00;;;;5047880;28;20171;-43
2022/09/07 01:02:04;;;;;;;2.00;1.65;;;27.00;56.50;27.80;100551.00;;;;5048443;28;20637;-44
2022/09/07 01:04:30;;;;;;;2.92;1.80;;;27.00;56.40;27.80;100549.00;;;;5047987;28;20196;-44
2022/09/07 01:06:56;;;;;;;3.20;2.08;;;27.00;56.50;27.80;100531.00;;;;5047378;28;20166;-43
2022/09/07 01:09:22;;;;;;;2.78;1.88;;;26.90;56.70;27.80;100517.00;;;;5031030;28;20206;-44
2022/09/07 01:11:49;;;;;;;2.35;1.90;;;26.90;57.00;27.80;100526.00;;;;5047856;28;20240;-43
2022/09/07 01:14:22;;;;;;;3.08;1.90;;;26.90;57.20;27.80;100527.00;;;;5048869;28;20166;-43
2022/09/07 01:17:09;;;;;;;3.03;1.75;;;26.90;57.20;27.80;100506.00;;;;5047676;28;20178;-43
2022/09/07 01:20:31;;;;;;;2.25;1.77;;;26.90;57.20;27.80;100519.00;;;;5047184;28;20599;-43
2022/09/07 01:23:50;;;;;;;2.17;1.67;;;26.90;57.00;27.80;100520.00;;;;5048789;28;20202;-44
2022/09/07 01:26:25;;;;;;;2.75;1.77;;;26.90;57.00;27.70;100507.00;;;;5049529;28;20162;-42
2022/09/07 01:29:01;;;;;;;1.80;1.70;;;26.90;56.80;27.70;100512.00;;;;5047212;28;20162;-43
2022/09/07 01:31:50;;;;;;;2.33;1.67;;;26.90;57.00;27.70;100520.00;;;;5047693;28;20198;-45
2022/09/07 01:34:24;;;;;;;2.60;1.92;;;26.90;56.90;27.70;100507.00;;;;5047591;28;20170;-43
2022/09/07 01:37:04;;;;;;;1.90;1.63;;;26.90;56.80;27.70;100504.00;;;;5047083;28;20167;-44
2022/09/07 01:39:56;;;;;;;2.05;1.50;;;26.90;56.90;27.70;100495.00;;;;5047018;28;20527;-44
2022/09/07 01:42:30;;;;;;;2.13;1.73;;;26.90;56.90;27.70;100476.00;;;;5015476;28;20259;-44
2022/09/07 01:44:58;;;;;;;2.50;1.90;;;26.90;57.00;27.70;100473.00;;;;5047382;28;20548;-43
2022/09/07 01:47:26;;;;;;;1.85;1.70;;;26.80;57.00;27.70;100474.00;;;;5047108;28;20178;-43
2022/09/07 01:50:06;;;;;;;2.03;1.58;;;26.90;56.90;27.70;100459.00;;;;5047136;28;20266;-44
2022/09/07 01:52:56;;;;;;;5.03;1.75;;;26.90;56.90;27.70;100466.00;;;;5049357;28;20163;-42
2022/09/07 01:55:45;;;;;;;1.80;1.70;;;26.90;56.80;27.70;100463.00;;;;5049222;28;20155;-44
2022/09/07 01:58:35;;;;;;;2.65;1.58;;;26.90;56.80;27.60;100453.00;;;;5054095;28;20204;-44
2022/09/07 02:01:11;;;;;;;2.58;1.70;;;26.90;56.60;27.60;100453.00;;;;5051464;28;20198;-43
2022/09/07 02:03:46;;;;;;;1.88;1.42;;;26.90;56.70;27.60;100455.00;;;;5047364;28;20193;-44
2022/09/07 02:06:22;;;;;;;1.85;1.50;;;26.90;56.70;27.60;100444.00;;;;5048108;28;20197;-45
2022/09/07 02:09:22;;;;;;;2.10;1.50;;;26.90;56.70;27.50;100452.00;;;;5046525;28;20196;-45
2022/09/07 02:11:49;;;;;;;1.88;1.58;;;26.90;56.60;27.50;100460.00;;;;5026371;28;20206;-42
2022/09/07 02:14:35;;;;;;;1.63;1.40;;;26.80;56.60;27.60;100460.00;;;;5046659;28;20277;-43
2022/09/07 02:17:18;;;;;;;1.70;1.60;;;26.80;56.60;27.60;100451.00;;;;5047503;28;20548;-43
2022/09/07 02:19:52;;;;;;;1.50;1.40;;;26.80;56.30;27.60;100460.00;;;;5047781;28;20180;-44
2022/09/07 02:22:22;;;;;;;1.50;1.40;;;26.90;56.50;27.60;100449.00;;;;5047054;28;20542;-44
2022/09/07 02:24:51;;;;;;;2.92;1.52;;;26.90;56.20;27.50;100446.00;;;;5046479;28;20194;-49
2022/09/07 02:27:25;;;;;;;2.05;1.60;;;26.90;56.20;27.50;100442.00;;;;5055031;28;20234;-44
2022/09/07 02:29:51;;;;;;;1.55;1.35;;;26.90;56.20;27.50;100450.00;;;;5067198;28;20173;-43
2022/09/07 02:32:17;;;;;;;2.50;1.75;;;26.90;56.50;27.50;100448.00;;;;5065596;28;20807;-44
2022/09/07 02:34:43;;;;;;;1.70;1.60;;;26.90;56.60;27.60;100423.00;;;;5050104;28;20249;-43
2022/09/07 02:37:09;;;;;;;1.95;1.50;;;26.80;56.60;27.50;100436.00;;;;5045629;28;20905;-44
2022/09/07 02:39:35;;;;;;;1.60;1.50;;;26.80;56.20;27.50;100434.00;;;;5046240;28;20174;-44
2022/09/07 02:42:00;;;;;;;2.38;1.80;;;26.80;56.30;27.60;100429.00;;;;5045549;28;20610;-44
2022/09/07 02:44:33;;;;;;;1.70;1.60;;;26.70;56.50;27.50;100436.00;;;;5047165;28;20202;-44
2022/09/07 02:47:40;;;;;;;2.05;1.70;;;26.80;55.90;27.50;100439.00;;;;5046232;28;20359;-44
2022/09/07 02:50:46;;;;;;;1.80;1.50;;;26.30;57.30;27.50;100434.00;;;;5023131;28;20198;-43
2022/09/07 02:53:35;;;;;;;1.60;1.50;;;26.40;57.60;27.50;100431.00;;;;5046107;28;20635;-42
2022/09/07 02:56:30;;;;;;;1.80;1.70;;;26.50;56.80;27.50;100436.00;;;;5045963;28;20534;-43
2022/09/07 02:59:11;;;;;;;2.58;1.73;;;26.60;57.00;27.40;100437.00;;;;5019048;28;20178;-45
2022/09/07 03:02:11;;;;;;;1.55;1.45;;;26.60;56.70;27.40;100438.00;;;;5045996;28;20186;-43
2022/09/07 03:05:13;;;;;;;1.73;1.60;;;26.60;56.60;27.40;100430.00;;;;5046829;28;20215;-44
2022/09/07 03:08:07;;;;;;;1.13;1.13;;;26.60;56.60;27.40;100424.00;;;;5047204;28;20182;-44
2022/09/07 03:10:33;;;;;;;1.70;1.60;;;26.60;56.00;27.40;100415.00;;;;5047549;28;20243;-51
2022/09/07 03:12:59;;;;;;;1.60;1.30;;;26.60;55.70;27.40;100419.00;;;;5045587;28;20589;-44
2022/09/07 03:15:26;;;;;;;1.50;1.40;;;26.60;56.00;27.40;100421.00;;;;5046835;28;20201;-43
2022/09/07 03:17:52;;;;;;;1.60;1.50;;;26.70;55.80;27.40;100425.00;;;;5046850;28;20289;-42
2022/09/07 03:20:18;;;;;;;2.33;1.60;;;26.60;56.50;27.40;100399.00;;;;5049777;28;20229;-44
2022/09/07 03:22:45;;;;;;;1.55;1.45;;;26.60;56.50;27.40;100428.00;;;;5052501;28;20198;-43
2022/09/07 03:25:11;;;;;;;1.42;1.33;;;26.50;56.40;27.40;100431.00;;;;5050104;28;20206;-45
2022/09/07 03:27:37;;;;;;;2.25;1.50;;;26.50;56.30;27.40;100431.00;;;;5046742;28;20163;-45
2022/09/07 03:30:05;;;;;;;1.50;1.40;;;26.50;55.60;27.40;100433.00;;;;5046650;28;20195;-43
2022/09/07 03:32:32;;;;;;;3.00;1.40;;;26.50;55.60;27.30;100433.00;;;;5046497;28;20224;-43
2022/09/07 03:34:58;;;;;;;1.60;1.50;;;26.50;55.80;27.40;100425.00;;;;5045600;28;20885;-44
2022/09/07 03:37:24;;;;;;;1.98;1.70;;;26.60;56.00;27.40;100429.00;;;;5046469;28;20738;-43
2022/09/07 03:39:50;;;;;;;3.38;1.80;;;26.70;55.90;27.40;100419.00;;;;5046566;28;20197;-44
2022/09/07 03:42:16;;;;;;;2.42;1.58;;;26.70;55.80;27.40;100412.00;;;;5049242;28;20253;-44
2022/09/07 03:44:41;;;;;;;2.08;1.67;;;26.70;55.80;27.30;100413.00;;;;5049946;28;20251;-44
2022/09/07 03:47:07;;;;;;;3.70;3.40;;;26.70;55.90;27.40;100408.00;;;;5050243;28;20761;-43
2022/09/07 03:49:33;;;;;;;1.90;1.70;;;26.70;56.20;27.30;100413.00;;;;5050260;28;20567;-42
2022/09/07 03:51:59;;;;;;;1.90;1.73;;;26.60;56.30;27.30;100401.00;;;;5050504;28;20402;-44
2022/09/07 03:54:24;;;;;;;1.65;1.55;;;26.60;56.00;27.30;100403.00;;;;5049147;28;20194;-45
2022/09/07 03:56:50;;;;;;;2.00;1.60;;;26.70;56.00;27.30;100412.00;;;;5049836;28;20666;-43
2022/09/07 03:59:16;;;;;;;1.63;1.52;;;26.60;55.90;27.30;100418.00;;;;5050148;28;20906;-43
2022/09/07 04:01:42;;;;;;;2.63;1.65;;;26.70;56.00;27.30;100412.00;;;;5050035;28;20275;-44
2022/09/07 04:04:07;;;;;;;1.83;1.70;;;26.60;56.10;27.30;100410.00;;;;5049593;28;20229;-43
2022/09/07 04:06:33;;;;;;;1.63;1.42;;;26.60;56.20;27.30;100417.00;;;;5048743;28;20166;-43
2022/09/07 04:09:04;;;;;;;1.60;1.50;;;26.60;55.70;27.30;100417.00;;;;5049669;28;20233;-43
2022/09/07 04:11:30;;;;;;;1.98;1.58;;;26.50;56.10;27.20;100430.00;;;;5049646;28;20190;-44
2022/09/07 04:13:56;;;;;;;1.55;1.45;;;26.50;56.10;27.20;100412.00;;;;5050112;28;20243;-43
2022/09/07 04:16:24;;;;;;;2.47;1.80;;;26.50;56.30;27.20;100412.00;;;;5048497;28;20647;-45
2022/09/07 04:18:53;;;;;;;1.60;1.50;;;26.40;56.10;27.20;100406.00;;;;5049388;28;20257;-44
2022/09/07 04:21:22;;;;;;;5.15;1.73;;;26.40;56.40;27.20;100409.00;;;;5049526;28;20186;-43
2022/09/07 04:23:48;;;;;;;3.38;2.00;;;26.40;56.70;27.10;100412.00;;;;5058620;28;20194;-43
2022/09/07 04:26:19;;;;;;;5.18;1.90;;;26.20;57.00;27.10;100414.00;;;;5048865;28;20206;-45
2022/09/07 04:28:44;;;;;;;4.60;2.00;;;26.00;57.40;27.00;100416.00;;;;5049119;28;20155;-45
2022/09/07 04:31:11;;;;;;;2.28;1.90;;;25.70;58.30;26.90;100419.00;;;;5050367;28;20198;-44
2022/09/07 04:33:37;;;;;;;2.90;1.70;;;25.60;58.60;26.90;100388.00;;;;5063197;28;20165;-42
2022/09/07 04:36:03;;;;;;;3.60;1.70;;;25.60;58.60;26.80;100411.00;;;;5048638;28;20166;-44
2022/09/07 04:38:29;;;;;;;3.88;2.08;;;25.40;58.90;26.80;100410.00;;;;5047704;28;20204;-44
2022/09/07 04:41:05;;;;;;;3.00;1.65;;;25.60;58.60;26.80;100404.00;;;;5049026;28;20190;-42
2022/09/07 04:43:31;;;;;;;4.40;2.00;;;25.60;58.30;26.70;100404.00;;;;5047811;28;20250;-43
2022/09/07 04:46:00;;;;;;;2.45;1.90;;;25.80;58.00;26.80;100404.00;;;;5048558;28;20249;-43
2022/09/07 04:48:26;;;;;;;2.38;1.80;;;25.80;57.60;26.70;100409.00;;;;5048334;28;20579;-44
2022/09/07 04:50:51;;;;;;;3.50;2.00;;;25.90;57.50;26.80;100402.00;;;;5047919;28;20225;-44
2022/09/07 04:53:18;;;;;;;2.67;1.85;;;25.90;57.30;26.70;100408.00;;;;5043678;28;20694;-46
2022/09/07 04:55:44;;;;;;;7.55;2.42;;;25.80;57.60;26.70;100409.00;;;;5032174;28;20208;-45
2022/09/07 04:58:10;;;;;;;11.43;2.63;;;25.60;58.40;26.70;100407.00;;;;5068539;28;20158;-44
2022/09/07 05:00:38;;;;;;;4.20;2.35;;;25.60;58.40;26.70;100412.00;;;;5068795;28;20201;-43
2022/09/07 05:03:04;;;;;;;6.88;2.13;;;25.70;58.40;26.60;100407.00;;;;5068741;28;20760;-43
2022/09/07 05:05:30;;;;;;;6.38;2.50;;;25.70;58.20;26.60;100416.00;;;;5068640;28;20193;-43
2022/09/07 05:07:56;;;;;;;4.50;2.28;;;25.60;58.80;26.60;100402.00;;;;5068523;28;20665;-42
2022/09/07 05:10:22;;;;;;;5.03;2.10;;;25.40;59.10;26.60;100411.00;;;;5068536;28;20232;-42
2022/09/07 05:12:47;;;;;;;3.30;1.95;;;25.50;58.90;26.50;100407.00;;;;5068224;28;20253;-43
2022/09/07 05:15:13;;;;;;;3.17;1.95;;;25.50;58.80;26.50;100406.00;;;;5068589;28;20646;-45
2022/09/07 05:17:39;;;;;;;5.40;2.17;;;25.50;58.70;26.50;100400.00;;;;5066369;28;20554;-43
2022/09/07 05:20:05;;;;;;;5.55;2.10;;;25.50;58.80;26.50;100403.00;;;;5068841;28;20478;-44
2022/09/07 05:22:34;;;;;;;3.80;1.85;;;25.60;58.40;26.50;100404.00;;;;5067871;28;20170;-43
2022/09/07 05:25:00;;;;;;;1.98;1.75;;;25.60;58.00;26.50;100394.00;;;;5067912;28;20190;-42
2022/09/07 05:27:25;;;;;;;5.45;2.80;;;25.40;58.80;26.50;100396.00;;;;5067149;28;20199;-43
2022/09/07 05:29:51;;;;;;;5.28;3.42;;;25.50;58.50;26.40;100399.00;;;;5067978;28;20676;-44
2022/09/07 05:32:17;;;;;;;3.63;2.40;;;25.70;58.30;26.50;100406.00;;;;5066871;28;20951;-44
2022/09/07 05:34:43;;;;;;;4.28;2.40;;;25.70;58.00;26.50;100405.00;;;;5068183;28;20644;-44
2022/09/07 05:37:09;;;;;;;3.92;2.20;;;25.50;58.20;26.40;100420.00;;;;5082270;28;20205;-44
2022/09/07 05:39:34;;;;;;;3.65;2.30;;;25.40;58.90;26.40;100413.00;;;;5066919;28;20232;-43
2022/09/07 05:42:00;;;;;;;2.50;2.30;;;25.50;58.70;26.40;100410.00;;;;5068280;28;20681;-43
2022/09/07 05:44:26;;;;;;;2.30;2.10;;;25.60;58.00;26.40;100408.00;;;;5067961;28;20186;-42
2022/09/07 05:46:52;;;;;;;2.13;1.90;;;25.50;58.20;26.40;100354.00;;;;5068291;28;20165;-42
2022/09/07 05:49:18;;;;;;;3.33;2.05;;;25.40;58.70;26.40;100403.00;;;;5067960;28;20181;-43
2022/09/07 05:51:43;;;;;;;2.88;2.30;;;25.50;58.30;26.30;100407.00;;;;5067803;28;20193;-42
2022/09/07 05:54:10;;;;;;;2.63;2.20;;;25.40;58.80;26.30;100411.00;;;;5066546;28;20260;-43
2022/09/07 05:56:36;;;;;;;2.20;2.00;;;25.30;59.10;26.30;100414.00;;;;5068101;28;20410;-44
2022/09/07 05:59:02;;;;;;;2.28;1.90;;;25.40;58.90;26.30;100409.00;;;;5067831;28;20614;-43
2022/09/07 06:01:28;;;;;;;2.55;2.15;;;25.40;58.40;26.30;100413.00;;;;5067845;28;20200;-43
2022/09/07 06:03:54;;;;;;;2.30;1.90;;;25.50;57.90;26.30;100410.00;;;;5067903;28;20221;-42
2022/09/07 06:06:19;;;;;;;3.38;2.15;;;25.50;58.20;26.30;100410.00;;;;5067967;28;20244;-43
2022/09/07 06:08:50;;;;;;;4.10;2.20;;;25.40;58.50;26.20;100411.00;;;;5067656;28;20205;-42
2022/09/07 06:11:18;;;;;;;1.80;1.70;;;25.10;59.70;26.20;100430.00;;;;5068728;28;20212;-43
2022/09/07 06:13:44;;;;;;;4.05;2.10;;;25.10;59.80;26.10;100429.00;;;;5067495;28;20235;-43
2022/09/07 06:16:11;;;;;;;2.70;2.00;;;24.70;61.50;26.00;100442.00;;;;5067250;28;20622;-43
2022/09/07 06:18:42;;;;;;;2.30;2.08;;;24.60;61.40;25.90;100443.00;;;;5067793;28;20169;-43
2022/09/07 06:21:19;;;;;;;2.67;2.15;;;24.70;60.90;25.80;100451.00;;;;5085356;28;20192;-44
2022/09/07 06:23:46;;;;;;;2.83;2.10;;;24.50;61.80;25.80;100444.00;;;;5084725;28;20174;-44
2022/09/07 06:26:12;;;;;;;2.13;2.00;;;24.20;63.40;25.70;100450.00;;;;5078576;28;20165;-44
2022/09/07 06:28:40;;;;;;;2.50;1.92;;;24.50;62.10;25.70;100451.00;;;;5072399;28;20177;-44
2022/09/07 06:31:12;;;;;;;3.70;2.00;;;24.20;62.80;25.60;100454.00;;;;5072171;28;20242;-44
2022/09/07 06:33:38;;;;;;;2.33;2.00;;;24.30;63.70;25.50;100456.00;;;;5080390;28;20157;-45
2022/09/07 06:36:08;;;;;;;2.00;1.80;;;23.90;64.60;25.50;100461.00;;;;5069941;28;20188;-43
2022/09/07 06:38:37;;;;;;;2.80;2.50;;;24.10;63.30;25.50;100445.00;;;;5067152;28;20822;-43
2022/09/07 06:41:08;;;;;;;2.27;2.00;;;24.10;64.10;25.40;100468.00;;;;5066668;28;20680;-43
2022/09/07 06:43:34;;;;;;;3.90;2.07;;;23.80;65.00;25.40;100468.00;;;;5066829;28;20504;-41
2022/09/07 06:46:00;;;;;;;3.15;2.50;;;23.80;65.80;25.30;100469.00;;;;5067036;28;20561;-43
2022/09/07 06:48:26;;;;;;;3.80;3.50;;;23.80;65.30;25.20;100467.00;;;;5072645;28;20193;-44
2022/09/07 06:51:08;;;;;;;5.03;4.57;;;23.40;68.00;24.80;100477.00;;;;5072342;28;20235;-44
2022/09/07 06:53:35;;;;;;;5.33;3.60;;;22.90;70.10;24.90;100476.00;;;;5068256;28;20150;-43
2022/09/07 06:56:05;;;;;;;3.40;3.07;;;23.20;68.60;24.80;100487.00;;;;5067170;28;20166;-43
2022/09/07 06:58:31;;;;;;;10.77;5.97;;;23.40;67.60;24.80;100485.00;;;;5067181;28;20228;-43
2022/09/07 07:00:57;;;;;;;4.77;4.30;;;23.50;68.40;24.80;100488.00;;;;5066979;28;20185;-42
2022/09/07 07:03:23;;;;;;;3.90;3.60;;;23.50;67.00;24.90;100498.00;;;;5067010;28;20208;-43
2022/09/07 07:05:53;;;;;;;5.63;5.13;;;23.80;65.50;24.90;100487.00;;;;5067090;28;20289;-43
2022/09/07 07:08:21;;;;;;;4.07;3.77;;;23.90;66.00;25.00;100483.00;;;;5066700;28;20320;-42
2022/09/07 07:10:46;;;;;;;3.93;3.63;;;24.00;65.00;25.00;100493.00;;;;5066949;28;20777;-42
2022/09/07 07:13:12;;;;;;;7.07;6.37;;;24.00;65.10;24.90;100499.00;;;;5066876;28;20268;-43
2022/09/07 07:15:38;;;;;;;5.53;4.50;;;24.00;66.40;25.00;100490.00;;;;5067359;28;20185;-43
2022/09/07 07:18:05;;;;;;;4.57;4.17;;;24.10;64.90;25.00;100490.00;;;;5070540;28;20208;-42
2022/09/07 07:20:30;;;;;;;5.17;4.77;;;24.40;63.60;25.10;100483.00;;;;5070912;28;20490;-42
2022/09/07 07:22:56;;;;;;;6.30;5.63;;;24.50;63.40;25.20;100494.00;;;;5070602;28;20205;-42
2022/09/07 07:25:22;;;;;;;5.37;4.87;;;24.40;64.10;25.10;100490.00;;;;5070617;28;20217;-43
2022/09/07 07:27:48;;;;;;;5.60;5.20;;;24.20;64.80;25.20;100493.00;;;;5069210;28;20212;-44
2022/09/07 07:30:15;;;;;;;7.77;7.07;;;24.30;64.70;25.20;100505.00;;;;5069831;28;20185;-44
2022/09/07 07:32:41;;;;;;;6.00;5.50;;;24.10;65.20;25.10;100497.00;;;;5070631;28;20204;-44
2022/09/07 07:35:07;;;;;;;6.13;5.60;;;23.90;65.50;25.10;100500.00;;;;5070669;28;20208;-43
2022/09/07 07:37:35;;;;;;;6.70;6.07;;;23.60;67.50;25.00;100508.00;;;;5069927;28;20671;-43
2022/09/07 07:40:06;;;;;;;7.60;6.90;;;23.40;68.20;24.90;100505.00;;;;5070690;28;20219;-43
2022/09/07 07:42:32;;;;;;;5.83;5.33;;;23.50;68.00;24.90;100507.00;;;;5070154;28;20653;-43
2022/09/07 07:44:58;;;;;;;9.30;8.50;;;23.60;67.00;24.90;100450.00;;;;5070652;28;20284;-42
2022/09/07 07:47:25;;;;;;;6.10;5.60;;;23.80;68.00;24.90;100500.00;;;;5070068;28;20262;-43
2022/09/07 07:49:51;;;;;;;6.97;6.47;;;23.80;66.80;25.00;100514.00;;;;5068999;28;20180;-43
2022/09/07 07:52:17;;;;;;;6.07;5.57;;;23.90;66.70;25.00;100517.00;;;;5070308;28;20176;-43
2022/09/07 07:54:44;;;;;;;5.50;5.00;;;24.00;66.40;25.00;100515.00;;;;4917143;28;20224;-43
2022/09/07 07:57:09;;;;;;;5.87;5.37;;;24.30;63.90;25.10;100522.00;;;;5069383;28;20181;-42
2022/09/07 07:59:35;;;;;;;5.20;4.70;;;24.40;64.20;25.10;100512.00;;;;5070096;28;20341;-43
2022/09/07 08:02:03;;;;;;;4.40;4.10;;;24.50;63.00;25.20;100517.00;;;;5069342;28;20217;-46
2022/09/07 08:04:30;;;;;;;6.50;5.90;;;24.60;62.20;25.30;100506.00;;;;5069747;28;20209;-47
2022/09/07 08:06:56;;;;;;;5.38;4.97;;;24.70;62.70;25.30;100505.00;;;;5068050;28;20158;-46
2022/09/07 08:09:22;;;;;;;4.80;4.40;;;24.70;61.80;25.40;100512.00;;;;5069280;28;20186;-47
2022/09/07 08:11:48;;;;;;;6.17;4.67;;;24.80;61.60;25.40;100505.00;;;;5068780;28;20198;-45
2022/09/07 08:14:15;;;;;;;8.15;7.35;;;24.80;61.70;25.50;100507.00;;;;5070221;28;20166;-45
2022/09/07 08:16:44;;;;;;;6.57;5.97;;;24.90;64.10;25.50;100499.00;;;;5069343;28;20162;-49
2022/09/07 08:19:10;;;;;;;4.90;4.50;;;24.90;62.30;25.50;100509.00;;;;5069154;28;20212;-47
2022/09/07 08:21:35;;;;;;;4.60;4.20;;;24.90;61.70;25.50;100501.00;;;;5068997;28;20193;-45
2022/09/07 08:24:02;;;;;;;5.25;4.75;;;24.90;61.60;25.60;100496.00;;;;5069083;28;20213;-46
2022/09/07 08:26:28;;;;;;;5.03;4.53;;;24.90;61.20;25.60;100501.00;;;;5069369;28;20154;-48
2022/09/07 08:28:54;;;;;;;5.43;4.45;;;24.90;60.90;25.60;100505.00;;;;5049889;28;20176;-45
2022/09/07 08:31:20;;;;;;;6.78;5.00;;;25.00;60.70;25.70;100507.00;;;;5080630;28;20182;-45
2022/09/07 08:33:45;;;;;;;5.13;4.63;;;25.00;61.20;25.70;100502.00;;;;5073287;28;20170;-48
2022/09/07 08:36:13;;;;;;;4.50;4.10;;;25.00;61.80;25.70;100489.00;;;;5069071;28;20245;-46
2022/09/07 08:38:39;;;;;;;4.78;4.28;;;25.00;61.10;25.70;100496.00;;;;5068753;28;20198;-48
2022/09/07 08:41:30;;;;;;;5.55;5.05;;;25.00;61.00;25.70;100519.00;;;;5069060;28;20185;-47
2022/09/07 08:44:01;;;;;;;5.60;5.10;;;25.00;61.30;25.70;100518.00;;;;5068035;28;20236;-45
2022/09/07 08:46:49;;;;;;;6.33;5.73;;;25.00;63.00;25.80;100519.00;;;;5059106;28;20634;-47
2022/09/07 08:49:42;;;;;;;5.43;4.93;;;25.10;63.70;25.70;100524.00;;;;5059236;28;20698;-45
2022/09/07 08:52:15;;;;;;;4.60;3.80;;;25.10;62.80;25.70;100539.00;;;;5053784;28;20190;-47
2022/09/07 08:54:42;;;;;;;4.80;4.40;;;25.10;62.80;25.70;100539.00;;;;5017478;28;20170;-45
2022/09/07 08:57:08;;;;;;;5.37;3.97;;;25.10;63.20;25.70;100533.00;;;;5050599;28;20192;-47
2022/09/07 08:59:43;;;;;;;3.92;3.50;;;25.10;63.50;25.70;100532.00;;;;5067190;28;20174;-45
2022/09/07 09:02:15;;;;;;;4.90;3.33;;;25.10;63.20;25.70;100544.00;;;;5050894;28;20834;-46
2022/09/07 09:04:43;;;;;;;3.30;2.97;;;25.10;63.50;25.70;100538.00;;;;5068447;28;20189;-46
2022/09/07 09:07:38;;;;;;;3.20;2.90;;;25.10;63.60;25.70;100536.00;;;;5068351;28;20180;-47
2022/09/07 09:10:42;;;;;;;4.53;2.67;;;25.10;63.60;25.70;100534.00;;;;5076366;28;20858;-45
2022/09/07 09:13:24;;;;;;;4.00;2.70;;;25.00;63.30;25.60;100542.00;;;;5048807;28;20158;-45
2022/09/07 09:16:25;;;;;;;3.47;2.50;;;25.00;63.30;25.60;100531.00;;;;5031279;28;20656;-44
2022/09/07 09:19:31;;;;;;;2.53;2.22;;;25.00;63.00;25.60;100540.00;;;;5033836;28;20178;-45
2022/09/07 09:22:21;;;;;;;5.78;2.30;;;25.00;62.70;25.60;100531.00;;;;5047930;28;20198;-47
2022/09/07 09:25:29;;;;;;;4.07;2.40;;;25.00;62.50;25.70;100532.00;;;;5046909;28;20195;-46
2022/09/07 09:27:55;;;;;;;3.50;2.13;;;25.00;62.20;25.70;100534.00;;;;5044584;28;20190;-49
2022/09/07 09:30:23;;;;;;;2.78;2.42;;;25.00;61.90;25.70;100527.00;;;;5047079;28;20193;-45
2022/09/07 09:32:51;;;;;;;4.97;2.90;;;25.00;61.90;25.70;100535.00;;;;5047114;28;20190;-46
2022/09/07 09:35:34;;;;;;;3.43;2.70;;;25.00;62.00;25.70;100532.00;;;;5046587;28;20182;-50
2022/09/07 09:38:02;;;;;;;3.03;2.70;;;25.00;62.80;25.70;100535.00;;;;5048072;28;20193;-44
2022/09/07 09:40:35;;;;;;;2.97;2.63;;;25.00;62.60;25.80;100530.00;;;;5047109;28;20305;-46
2022/09/07 09:43:01;;;;;;;2.50;2.30;;;25.00;62.50;25.80;100531.00;;;;5046286;28;20209;-46
2022/09/07 09:45:33;;;;;;;4.45;2.83;;;25.00;62.10;25.80;100535.00;;;;5047715;28;20190;-46
2022/09/07 09:47:59;;;;;;;5.30;2.67;;;25.00;62.30;25.80;100538.00;;;;5030596;28;20355;-48
2022/09/07 09:50:31;;;;;;;3.72;2.83;;;25.00;62.60;25.80;100533.00;;;;5029710;28;20190;-45
2022/09/07 09:52:56;;;;;;;3.83;3.17;;;25.10;62.10;25.80;100536.00;;;;5046655;28;20154;-47
2022/09/07 09:55:30;;;;;;;3.70;3.40;;;25.10;63.30;25.80;100531.00;;;;5046533;28;20666;-47
2022/09/07 09:58:25;;;;;;;3.78;2.78;;;25.10;62.90;25.80;100535.00;;;;5046553;28;20186;-45
2022/09/07 10:01:05;;;;;;;3.03;2.72;;;25.10;63.10;25.80;100536.00;;;;5046352;28;20198;-44
2022/09/07 10:03:34;;;;;;;4.63;2.70;;;25.00;62.70;25.70;100536.00;;;;5047430;28;20166;-48
2022/09/07 10:06:02;;;;;;;3.35;2.70;;;25.00;62.60;25.70;100535.00;;;;5047499;28;20298;-46
2022/09/07 10:08:30;;;;;;;2.60;2.40;;;25.00;62.80;25.70;100527.00;;;;5029802;28;20249;-49
2022/09/07 10:11:14;;;;;;;2.92;2.40;;;25.00;62.40;25.70;100540.00;;;;5029548;28;20201;-48
2022/09/07 10:13:56;;;;;;;2.78;2.58;;;25.00;62.30;25.70;100543.00;;;;5047450;28;20158;-46
2022/09/07 10:16:40;;;;;;;2.87;2.50;;;25.00;62.70;25.70;100541.00;;;;5063492;28;20178;-47
2022/09/07 10:19:35;;;;;;;4.43;2.88;;;25.00;62.50;25.70;100550.00;;;;5046094;28;20768;-48
2022/09/07 10:22:36;;;;;;;3.15;2.80;;;25.00;62.40;25.70;100560.00;;;;5032303;28;20282;-45
2022/09/07 10:25:04;;;;;;;4.10;2.97;;;25.00;62.60;25.60;100548.00;;;;5046653;28;20206;-45
2022/09/07 10:27:39;;;;;;;4.28;2.72;;;25.00;62.70;25.60;100559.00;;;;5046481;28;20188;-46
2022/09/07 10:30:14;;;;;;;2.97;2.67;;;25.00;62.60;25.60;100553.00;;;;5046759;28;20189;-45
2022/09/07 10:32:57;;;;;;;2.90;2.70;;;25.00;62.30;25.60;100530.00;;;;5045587;28;20216;-47
2022/09/07 10:35:32;;;;;;;3.73;2.90;;;25.00;62.10;25.60;100549.00;;;;5045705;28;20166;-45
2022/09/07 10:38:10;;;;;;;3.17;2.80;;;25.00;62.30;25.60;100544.00;;;;5033250;28;20261;-47
2022/09/07 10:40:57;;;;;;;2.75;2.55;;;24.90;62.30;25.60;100542.00;;;;5018846;28;20193;-50
2022/09/07 10:43:37;;;;;;;2.80;2.50;;;24.90;62.50;25.60;100539.00;;;;5065473;28;20780;-46
2022/09/07 10:46:28;;;;;;;2.55;2.35;;;25.00;62.60;25.60;100533.00;;;;5066831;28;20186;-46
2022/09/07 10:49:29;;;;;;;2.72;2.28;;;25.00;62.30;25.60;100542.00;;;;5045854;28;20158;-45
2022/09/07 10:52:21;;;;;;;2.65;2.10;;;25.00;62.20;25.60;100539.00;;;;5082563;28;20188;-46
2022/09/07 10:55:00;;;;;;;2.25;2.05;;;25.00;62.10;25.70;100530.00;;;;5092323;28;20165;-45
2022/09/07 10:57:44;;;;;;;2.40;2.20;;;25.00;62.00;25.70;100526.00;;;;5072990;28;20256;-47
2022/09/07 11:00:18;;;;;;;2.45;2.25;;;25.00;62.10;25.70;100513.00;;;;5066656;28;20205;-48
2022/09/07 11:03:13;;;;;;;2.55;2.22;;;25.00;62.30;25.70;100512.00;;;;5049491;28;20170;-47
2022/09/07 11:06:09;;;;;;;2.42;2.00;;;24.90;62.10;25.70;100511.00;;;;5064972;28;20182;-45
2022/09/07 11:09:27;;;;;;;2.67;2.20;;;25.00;62.20;25.70;100509.00;;;;5065530;28;20169;-48
2022/09/07 11:12:00;;;;;;;2.75;2.35;;;25.00;62.90;25.70;100513.00;;;;5066338;28;20745;-48